createdAt,value
2023-01-25T00:00:55.212Z,85.74
2023-01-25T00:03:22.254Z,85.58
2023-01-25T00:05:49.207Z,85.87
2023-01-25T00:08:16.791Z,85.78
2023-01-25T00:10:43.763Z,85.86
2023-01-25T00:13:10.769Z,85.85
2023-01-25T00:15:38.035Z,85.76
2023-01-25T00:18:05.183Z,85.76
2023-01-25T00:20:32.109Z,85.69
2023-01-25T00:22:59.064Z,85.41
2023-01-25T00:25:26.054Z,85.54
2023-01-25T00:27:53.044Z,85.07
2023-01-25T00:34:26.406Z,85.54
2023-01-25T00:37:18.205Z,85.09
2023-01-25T00:39:45.506Z,85.45
2023-01-25T00:42:14.711Z,85.40
2023-01-25T00:44:42.011Z,85.24
2023-01-25T00:47:11.186Z,85.25
2023-01-25T00:49:40.413Z,85.34
2023-01-25T00:52:09.019Z,85.28
2023-01-25T00:54:36.223Z,85.00
2023-01-25T00:57:03.425Z,85.01
2023-01-25T00:59:30.420Z,85.08
2023-01-25T01:01:57.686Z,84.95
2023-01-25T01:04:27.525Z,85.18
2023-01-25T01:06:55.215Z,85.21
2023-01-25T01:09:23.451Z,85.17
2023-01-25T01:11:50.726Z,85.04
2023-01-25T01:14:17.850Z,85.28
2023-01-25T01:16:44.920Z,85.03
2023-01-25T01:19:11.907Z,85.24
2023-01-25T01:21:39.214Z,85.13
2023-01-25T01:24:07.138Z,85.47
2023-01-25T01:26:34.164Z,85.24
2023-01-25T01:29:01.178Z,85.60
2023-01-25T01:31:28.316Z,85.51
2023-01-25T01:33:58.508Z,85.67
2023-01-25T01:36:28.602Z,85.81
2023-01-25T01:38:55.636Z,85.47
2023-01-25T01:41:22.705Z,85.78
2023-01-25T01:43:49.840Z,85.83
2023-01-25T01:46:28.429Z,85.60
2023-01-25T01:49:09.997Z,85.56
2023-01-25T01:52:02.241Z,85.47
2023-01-25T01:54:39.359Z,85.79
2023-01-25T01:57:31.542Z,85.89
2023-01-25T02:00:09.219Z,85.96
2023-01-25T02:02:36.343Z,85.98
2023-01-25T02:05:08.063Z,86.01
2023-01-25T02:07:39.507Z,86.06
2023-01-25T02:10:10.219Z,86.05
2023-01-25T02:12:38.564Z,85.86
2023-01-25T02:15:07.214Z,85.95
2023-01-25T02:17:37.859Z,86.02
2023-01-25T02:20:38.393Z,85.86
2023-01-25T02:23:40.558Z,86.08
2023-01-25T02:26:07.977Z,86.13
2023-01-25T02:28:54.443Z,86.20
2023-01-25T02:31:21.778Z,86.40
2023-01-25T02:33:48.831Z,86.31
2023-01-25T02:36:27.595Z,86.33
2023-01-25T02:39:13.421Z,86.17
2023-01-25T02:41:43.133Z,86.15
2023-01-25T02:44:18.241Z,86.25
2023-01-25T02:46:45.671Z,86.36
2023-01-25T02:49:12.820Z,86.10
2023-01-25T02:51:44.475Z,86.09
2023-01-25T02:54:13.371Z,86.06
2023-01-25T02:56:41.134Z,86.16
2023-01-25T02:59:09.885Z,86.06
2023-01-25T03:01:39.517Z,85.93
2023-01-25T03:04:07.314Z,86.11
2023-01-25T03:06:35.427Z,85.96
2023-01-25T03:09:07.771Z,85.83
2023-01-25T03:11:35.017Z,86.03
2023-01-25T03:14:02.454Z,86.12
2023-01-25T03:16:31.840Z,86.07
2023-01-25T03:18:58.852Z,85.91
2023-01-25T03:21:26.054Z,86.10
2023-01-25T03:24:00.337Z,86.03
2023-01-25T03:26:28.726Z,86.11
2023-01-25T03:28:55.960Z,86.01
2023-01-25T03:31:23.197Z,86.00
2023-01-25T03:33:50.519Z,86.02
2023-01-25T03:36:17.543Z,86.37
2023-01-25T03:38:44.537Z,86.36
2023-01-25T03:41:13.691Z,86.26
2023-01-25T03:43:40.708Z,86.59
2023-01-25T03:46:08.036Z,86.36
2023-01-25T03:48:35.104Z,86.52
2023-01-25T03:51:02.126Z,86.59
2023-01-25T03:53:31.128Z,86.65
2023-01-25T03:56:02.060Z,86.62
2023-01-25T03:58:30.600Z,86.66
2023-01-25T04:01:00.215Z,86.75
2023-01-25T04:03:31.155Z,86.75
2023-01-25T04:05:59.003Z,86.86
2023-01-25T04:08:27.061Z,86.97
2023-01-25T04:11:03.662Z,86.80
2023-01-25T04:13:30.675Z,86.96
2023-01-25T04:15:57.681Z,86.94
2023-01-25T04:18:24.645Z,86.94
2023-01-25T04:20:56.201Z,86.84
2023-01-25T04:23:25.081Z,86.90
2023-01-25T04:25:57.814Z,86.66
2023-01-25T04:28:25.343Z,87.13
2023-01-25T04:30:54.347Z,87.18
2023-01-25T04:33:21.381Z,86.78
2023-01-25T04:35:48.510Z,86.88
2023-01-25T04:38:15.994Z,87.05
2023-01-25T04:40:43.757Z,86.95
2023-01-25T04:43:14.129Z,86.95
2023-01-25T04:45:41.459Z,87.43
2023-01-25T04:48:10.950Z,87.09
2023-01-25T04:50:40.522Z,87.37
2023-01-25T04:53:08.701Z,87.37
2023-01-25T04:55:36.250Z,87.46
2023-01-25T04:58:03.872Z,87.35
2023-01-25T05:00:32.359Z,87.40
2023-01-25T05:02:59.374Z,87.41
2023-01-25T05:05:26.373Z,87.73
2023-01-25T05:07:53.397Z,87.57
2023-01-25T05:10:20.478Z,87.79
2023-01-25T05:12:47.687Z,87.70
2023-01-25T05:15:14.946Z,87.62
2023-01-25T05:17:41.911Z,87.63
2023-01-25T05:20:12.598Z,87.85
2023-01-25T05:22:39.569Z,87.85
2023-01-25T05:25:27.017Z,87.79
2023-01-25T05:27:53.970Z,87.80
2023-01-25T05:30:20.905Z,88.18
2023-01-25T05:32:50.282Z,87.80
2023-01-25T05:35:17.372Z,88.07
2023-01-25T05:37:44.375Z,87.93
2023-01-25T05:40:12.047Z,87.74
2023-01-25T05:42:39.873Z,87.92
2023-01-25T05:45:08.706Z,88.02
2023-01-25T05:47:35.801Z,88.12
2023-01-25T05:50:03.583Z,88.05
2023-01-25T05:52:30.663Z,88.15
2023-01-25T05:54:57.584Z,88.44
2023-01-25T05:57:24.662Z,88.42
2023-01-25T05:59:51.582Z,88.49
2023-01-25T06:02:19.094Z,88.35
2023-01-25T06:04:46.117Z,88.50
2023-01-25T06:07:13.061Z,88.46
2023-01-25T06:09:39.998Z,88.48
2023-01-25T06:12:07.001Z,88.88
2023-01-25T06:14:34.066Z,88.66
2023-01-25T06:17:01.081Z,88.70
2023-01-25T06:19:28.327Z,88.90
2023-01-25T06:21:55.352Z,88.72
2023-01-25T06:24:22.409Z,88.77
2023-01-25T06:26:49.432Z,88.94
2023-01-25T06:29:16.536Z,88.74
2023-01-25T06:31:43.615Z,88.74
2023-01-25T06:34:10.670Z,88.81
2023-01-25T06:36:37.680Z,88.91
2023-01-25T06:39:04.861Z,88.76
2023-01-25T06:41:31.808Z,88.99
2023-01-25T06:43:58.772Z,89.16
2023-01-25T06:46:25.718Z,89.04
2023-01-25T06:48:52.722Z,89.05
2023-01-25T06:51:19.745Z,89.24
2023-01-25T06:53:47.955Z,89.17
2023-01-25T06:56:22.193Z,89.06
2023-01-25T06:58:50.592Z,89.26
2023-01-25T07:01:27.043Z,89.43
2023-01-25T07:03:57.173Z,89.40
2023-01-25T07:06:25.766Z,89.15
2023-01-25T07:08:52.746Z,89.54
2023-01-25T07:11:20.014Z,89.53
2023-01-25T07:13:48.702Z,89.70
2023-01-25T07:16:19.462Z,89.71
2023-01-25T07:18:46.948Z,89.79
2023-01-25T07:21:16.367Z,89.84
2023-01-25T07:23:43.635Z,89.88
2023-01-25T07:26:17.817Z,89.81
2023-01-25T07:28:46.954Z,89.76
2023-01-25T07:31:15.329Z,89.96
2023-01-25T07:33:42.661Z,89.99
2023-01-25T07:36:11.817Z,89.94
2023-01-25T07:38:38.830Z,90.12
2023-01-25T07:41:06.166Z,90.15
2023-01-25T07:43:33.620Z,90.18
2023-01-25T07:46:05.808Z,90.12
2023-01-25T07:48:33.669Z,90.21
2023-01-25T07:51:25.584Z,90.26
2023-01-25T07:54:02.222Z,90.65
2023-01-25T07:56:35.387Z,90.40
2023-01-25T07:59:02.994Z,90.53
2023-01-25T08:01:35.019Z,90.59
2023-01-25T08:04:03.766Z,90.64
2023-01-25T08:06:38.338Z,90.47
2023-01-25T08:09:25.839Z,90.96
2023-01-25T08:11:53.690Z,90.81
2023-01-25T08:14:20.791Z,90.83
2023-01-25T08:16:47.739Z,90.78
2023-01-25T08:19:14.963Z,90.98
2023-01-25T08:21:42.108Z,91.05
2023-01-25T08:24:09.621Z,91.18
2023-01-25T08:26:37.305Z,91.20
2023-01-25T08:29:05.733Z,91.21
2023-01-25T08:31:35.424Z,91.62
2023-01-25T08:34:02.912Z,91.38
2023-01-25T08:36:30.439Z,91.73
2023-01-25T08:39:01.078Z,91.67
2023-01-25T08:41:30.455Z,91.70
2023-01-25T08:43:58.130Z,91.75
2023-01-25T08:46:31.912Z,91.63
2023-01-25T08:49:02.258Z,91.77
2023-01-25T08:51:31.701Z,91.83
2023-01-25T08:54:12.806Z,92.10
2023-01-25T08:56:41.789Z,92.12
2023-01-25T08:59:12.685Z,91.78
2023-01-25T09:01:39.758Z,91.99
2023-01-25T09:04:06.808Z,91.80
2023-01-25T09:06:34.006Z,91.83
2023-01-25T09:09:00.989Z,91.97
2023-01-25T09:11:28.157Z,92.10
2023-01-25T09:13:55.216Z,91.85
2023-01-25T09:16:30.971Z,92.25
2023-01-25T09:19:02.231Z,92.24
2023-01-25T09:21:30.072Z,92.03
2023-01-25T09:24:05.938Z,92.09
2023-01-25T09:26:36.629Z,92.28
2023-01-25T09:29:04.368Z,92.38
2023-01-25T09:31:31.506Z,92.53
2023-01-25T09:33:58.710Z,92.35
2023-01-25T09:36:26.172Z,92.38
2023-01-25T09:38:53.390Z,92.12
2023-01-25T09:41:58.407Z,92.24
2023-01-25T09:44:46.179Z,92.44
2023-01-25T09:48:00.312Z,92.43
2023-01-25T09:50:45.883Z,92.50
2023-01-25T09:53:22.194Z,92.62
2023-01-25T09:55:54.380Z,92.53
2023-01-25T09:58:31.115Z,92.61
2023-01-25T10:01:39.027Z,92.43
2023-01-25T10:04:23.398Z,92.20
2023-01-25T10:07:00.882Z,92.37
2023-01-25T10:09:58.271Z,92.51
2023-01-25T10:12:27.179Z,92.31
2023-01-25T10:14:54.867Z,92.31
2023-01-25T10:17:37.084Z,92.24
2023-01-25T10:20:18.908Z,92.49
2023-01-25T10:23:19.440Z,92.40
2023-01-25T10:26:02.172Z,92.59
2023-01-25T10:28:42.968Z,92.54
2023-01-25T10:31:16.036Z,92.83
2023-01-25T10:33:47.070Z,92.77
2023-01-25T10:36:18.728Z,92.73
2023-01-25T10:38:57.397Z,92.68
2023-01-25T10:41:36.774Z,92.77
2023-01-25T10:44:22.154Z,93.01
2023-01-25T10:47:07.222Z,92.94
2023-01-25T10:49:47.730Z,92.78
2023-01-25T10:52:14.702Z,93.09
2023-01-25T10:54:41.768Z,93.03
2023-01-25T10:57:15.295Z,93.21
2023-01-25T10:59:47.107Z,93.42
2023-01-25T11:02:44.328Z,93.25
2023-01-25T11:05:33.301Z,93.16
2023-01-25T11:08:16.352Z,93.25
2023-01-25T11:10:46.491Z,93.14
2023-01-25T11:13:16.630Z,93.11
2023-01-25T11:15:47.146Z,93.48
2023-01-25T11:18:35.300Z,93.52
2023-01-25T11:21:18.530Z,93.15
2023-01-25T11:24:04.902Z,93.19
2023-01-25T11:26:34.373Z,93.25
2023-01-25T11:29:24.299Z,92.91
2023-01-25T11:31:55.188Z,92.93
2023-01-25T11:34:27.182Z,92.92
2023-01-25T11:37:21.746Z,93.16
2023-01-25T11:40:33.031Z,92.96
2023-01-25T11:43:11.092Z,93.19
2023-01-25T11:46:10.871Z,93.09
2023-01-25T11:49:09.860Z,92.92
2023-01-25T11:51:47.793Z,92.78
2023-01-25T11:54:46.974Z,92.93
2023-01-25T11:57:34.028Z,93.14
2023-01-25T12:00:56.522Z,93.45
2023-01-25T12:04:00.458Z,93.32
2023-01-25T12:07:08.699Z,93.16
2023-01-25T12:09:41.260Z,93.42
2023-01-25T12:12:59.383Z,93.20
2023-01-25T12:15:54.786Z,93.19
2023-01-25T12:18:48.966Z,93.14
2023-01-25T12:21:37.533Z,93.14
2023-01-25T12:24:15.538Z,93.43
2023-01-25T12:27:18.824Z,93.70
2023-01-25T12:29:55.815Z,93.67
2023-01-25T12:32:41.481Z,93.73
2023-01-25T12:35:37.872Z,93.69
2023-01-25T12:38:38.425Z,93.81
2023-01-25T12:41:28.435Z,93.69
2023-01-25T12:44:27.838Z,93.84
2023-01-25T12:47:10.576Z,93.88
2023-01-25T12:49:55.850Z,93.90
2023-01-25T12:52:36.367Z,94.04
2023-01-25T12:55:13.857Z,93.95
2023-01-25T12:58:26.427Z,94.07
2023-01-25T13:01:33.501Z,94.33
2023-01-25T13:04:28.089Z,94.22
2023-01-25T13:07:30.386Z,94.29
2023-01-25T13:10:12.505Z,94.31
2023-01-25T13:13:00.606Z,94.47
2023-01-25T13:15:38.236Z,94.52
2023-01-25T13:18:33.093Z,94.65
2023-01-25T13:21:04.563Z,94.63
2023-01-25T13:23:52.147Z,94.68
2023-01-25T13:26:22.148Z,94.79
2023-01-25T13:28:51.120Z,94.77
2023-01-25T13:31:57.084Z,94.73
2023-01-25T13:34:39.160Z,94.81
2023-01-25T13:37:32.625Z,94.79
2023-01-25T13:40:07.061Z,94.60
2023-01-25T13:42:39.626Z,94.64
2023-01-25T13:45:20.662Z,94.56
2023-01-25T13:48:21.522Z,94.34
2023-01-25T13:50:59.386Z,94.33
2023-01-25T13:53:33.384Z,94.46
2023-01-25T13:56:02.411Z,94.51
2023-01-25T13:58:33.638Z,94.48
2023-01-25T14:01:06.326Z,94.81
2023-01-25T14:03:44.244Z,94.88
2023-01-25T14:06:39.348Z,94.84
2023-01-25T14:09:20.765Z,94.90
2023-01-25T14:11:58.384Z,95.09
2023-01-25T14:14:34.882Z,94.95
2023-01-25T14:17:09.526Z,95.08
2023-01-25T14:19:39.838Z,95.02
2023-01-25T14:22:33.150Z,94.88
2023-01-25T14:25:12.160Z,95.21
2023-01-25T14:27:57.058Z,95.18
2023-01-25T14:30:27.602Z,95.44
2023-01-25T14:33:17.202Z,95.12
2023-01-25T14:35:56.396Z,95.11
2023-01-25T14:38:30.530Z,94.91
2023-01-25T14:41:22.660Z,95.18
2023-01-25T14:43:53.947Z,95.48
2023-01-25T14:46:33.957Z,95.41
2023-01-25T14:49:26.902Z,95.98
2023-01-25T14:52:10.954Z,95.75
2023-01-25T14:54:59.408Z,95.54
2023-01-25T14:57:35.740Z,95.75
2023-01-25T15:00:07.534Z,95.76
2023-01-25T15:02:58.809Z,95.61
2023-01-25T15:05:33.026Z,95.61
2023-01-25T15:08:09.285Z,95.86
2023-01-25T15:10:38.633Z,95.78
2023-01-25T15:13:15.604Z,96.03
2023-01-25T15:16:03.746Z,96.26
2023-01-25T15:18:54.281Z,96.20
2023-01-25T15:21:48.466Z,96.02
2023-01-25T15:24:15.670Z,96.10
2023-01-25T15:26:43.444Z,96.08
2023-01-25T15:29:17.157Z,96.22
2023-01-25T15:31:44.384Z,96.34
2023-01-25T15:34:34.547Z,96.22
2023-01-25T15:37:01.496Z,96.29
2023-01-25T15:39:28.912Z,96.52
2023-01-25T15:41:56.076Z,96.45
2023-01-25T15:44:23.046Z,96.63
2023-01-25T15:46:51.863Z,96.56
2023-01-25T15:49:26.793Z,96.85
2023-01-25T15:51:55.528Z,96.99
2023-01-25T15:54:24.172Z,97.04
2023-01-25T15:57:00.846Z,97.11
2023-01-25T15:59:28.705Z,96.99
2023-01-25T16:01:55.801Z,97.11
2023-01-25T16:04:25.135Z,97.19
2023-01-25T16:06:54.456Z,97.16
2023-01-25T16:09:21.497Z,97.11
2023-01-25T16:11:55.252Z,97.01
2023-01-25T16:14:26.466Z,96.88
2023-01-25T16:16:53.591Z,97.03
2023-01-25T16:19:23.720Z,97.21
2023-01-25T16:21:51.566Z,97.16
2023-01-25T16:24:19.090Z,97.21
2023-01-25T16:26:55.558Z,97.56
2023-01-25T16:29:23.161Z,97.43
2023-01-25T16:31:51.396Z,97.73
2023-01-25T16:34:20.363Z,97.80
2023-01-25T16:36:50.516Z,97.79
2023-01-25T16:39:25.361Z,97.80
2023-01-25T16:41:52.626Z,97.94
2023-01-25T16:44:19.816Z,97.93
2023-01-25T16:46:50.064Z,97.86
2023-01-25T16:49:21.389Z,97.84
2023-01-25T16:51:51.698Z,97.96
2023-01-25T16:54:20.539Z,97.96
2023-01-25T16:56:49.311Z,97.84
2023-01-25T16:59:17.355Z,97.85
2023-01-25T17:01:45.124Z,98.07
2023-01-25T17:04:12.696Z,98.01
2023-01-25T17:06:43.775Z,97.91
2023-01-25T17:09:22.813Z,97.89
2023-01-25T17:11:51.046Z,97.90
2023-01-25T17:14:19.267Z,97.99
2023-01-25T17:16:48.502Z,98.19
2023-01-25T17:19:17.276Z,98.34
2023-01-25T17:21:44.647Z,98.35
2023-01-25T17:24:14.194Z,98.22
2023-01-25T17:26:42.085Z,98.25
2023-01-25T17:29:10.369Z,98.33
2023-01-25T17:31:38.321Z,98.51
2023-01-25T17:34:08.639Z,98.37
2023-01-25T17:36:35.656Z,98.33
2023-01-25T17:39:07.029Z,98.50
2023-01-25T17:41:34.200Z,98.56
2023-01-25T17:44:01.378Z,98.72
2023-01-25T17:46:33.352Z,98.48
2023-01-25T17:49:02.421Z,98.54
2023-01-25T17:51:31.145Z,98.49
2023-01-25T17:53:59.185Z,98.71
2023-01-25T17:56:27.374Z,98.51
2023-01-25T17:58:54.450Z,98.72
2023-01-25T18:01:34.627Z,98.54
2023-01-25T18:04:01.689Z,98.59
2023-01-25T18:06:30.942Z,98.40
2023-01-25T18:09:02.200Z,98.51
2023-01-25T18:11:33.776Z,98.63
2023-01-25T18:14:08.223Z,98.83
2023-01-25T18:16:38.855Z,99.12
2023-01-25T18:19:07.287Z,98.75
2023-01-25T18:21:34.877Z,98.59
2023-01-25T18:24:21.400Z,98.66
2023-01-25T18:26:48.349Z,98.77
2023-01-25T18:29:17.866Z,98.75
2023-01-25T18:31:45.554Z,98.79
2023-01-25T18:34:12.726Z,98.86
2023-01-25T18:36:39.707Z,98.79
2023-01-25T18:39:08.568Z,99.08
2023-01-25T18:41:35.691Z,99.04
2023-01-25T18:44:02.869Z,99.21
2023-01-25T18:46:30.454Z,99.20
2023-01-25T18:48:57.506Z,99.18
2023-01-25T18:51:26.191Z,98.94
2023-01-25T18:53:53.781Z,99.12
2023-01-25T18:56:22.105Z,98.97
2023-01-25T18:58:51.036Z,99.41
2023-01-25T19:01:21.739Z,99.28
2023-01-25T19:03:50.444Z,99.56
2023-01-25T19:06:19.727Z,99.50
2023-01-25T19:08:53.197Z,99.47
2023-01-25T19:11:22.610Z,99.56
2023-01-25T19:13:51.036Z,99.40
2023-01-25T19:16:26.003Z,99.44
2023-01-25T19:18:55.056Z,99.45
2023-01-25T19:21:25.911Z,99.36
2023-01-25T19:23:54.688Z,99.53
2023-01-25T19:26:24.551Z,99.46
2023-01-25T19:28:52.917Z,99.21
2023-01-25T19:31:24.205Z,99.39
2023-01-25T19:34:04.027Z,99.35
2023-01-25T19:36:37.311Z,99.77
2023-01-25T19:39:09.962Z,99.59
2023-01-25T19:41:38.919Z,99.37
2023-01-25T19:44:07.537Z,99.48
2023-01-25T19:46:36.750Z,99.49
2023-01-25T19:49:08.175Z,99.72
2023-01-25T19:51:38.429Z,99.72
2023-01-25T19:54:17.362Z,99.64
2023-01-25T19:56:47.327Z,99.70
2023-01-25T19:59:20.859Z,99.67
2023-01-25T20:01:48.408Z,99.78
2023-01-25T20:04:22.189Z,99.72
2023-01-25T20:06:50.852Z,100.00
2023-01-25T20:09:20.223Z,99.81
2023-01-25T20:11:47.582Z,99.83
2023-01-25T20:14:15.598Z,99.96
2023-01-25T20:16:42.835Z,99.76
2023-01-25T20:19:12.626Z,99.64
2023-01-25T20:21:39.944Z,99.80
2023-01-25T20:24:09.812Z,99.83
2023-01-25T20:26:40.235Z,99.93
2023-01-25T20:29:08.092Z,99.96
2023-01-25T20:31:40.041Z,99.79
2023-01-25T20:34:13.101Z,99.94
2023-01-25T20:36:40.953Z,99.99
2023-01-25T20:39:10.343Z,99.99
2023-01-25T20:41:37.170Z,99.98
2023-01-25T20:44:07.194Z,100.00
2023-01-25T20:46:37.323Z,99.72
2023-01-25T20:49:07.155Z,99.96
2023-01-25T20:51:35.214Z,100.00
2023-01-25T20:54:02.437Z,99.91
2023-01-25T20:56:29.341Z,99.93
2023-01-25T20:58:56.286Z,99.94
2023-01-25T21:01:30.313Z,99.89
2023-01-25T21:03:58.443Z,100.00
2023-01-25T21:06:27.392Z,100.00
2023-01-25T21:08:55.094Z,100.00
2023-01-25T21:11:23.319Z,100.00
2023-01-25T21:13:50.316Z,100.00
2023-01-25T21:16:23.447Z,100.00
2023-01-25T21:18:56.380Z,100.00
2023-01-25T21:21:31.996Z,100.00
2023-01-25T21:24:02.432Z,100.00
2023-01-25T21:26:32.992Z,100.00
2023-01-25T21:29:02.225Z,100.00
2023-01-25T21:31:32.985Z,100.00
2023-01-25T21:34:01.197Z,100.00
2023-01-25T21:36:28.785Z,100.00
2023-01-25T21:38:56.752Z,100.00
2023-01-25T21:41:27.166Z,100.00
2023-01-25T21:44:14.655Z,100.00
2023-01-25T21:46:44.819Z,100.00
2023-01-25T21:49:32.610Z,100.00
2023-01-25T21:52:04.000Z,100.00
2023-01-25T21:54:37.051Z,100.00
2023-01-25T21:57:09.464Z,100.00
2023-01-25T21:59:38.023Z,100.00
2023-01-25T22:02:06.693Z,100.00
2023-01-25T22:04:36.122Z,100.00
2023-01-25T22:07:04.606Z,100.00
2023-01-25T22:09:32.071Z,100.00
2023-01-25T22:11:59.354Z,100.00
2023-01-25T22:14:26.296Z,100.00
2023-01-25T22:16:55.545Z,100.00
2023-01-25T22:19:22.914Z,100.00
2023-01-25T22:21:49.864Z,100.00
2023-01-25T22:24:17.227Z,100.00
2023-01-25T22:27:08.361Z,100.00
2023-01-25T22:29:35.249Z,100.00
2023-01-25T22:32:02.494Z,100.00
2023-01-25T22:34:29.397Z,100.00
2023-01-25T22:36:56.322Z,100.00
2023-01-25T22:39:23.265Z,100.00
2023-01-25T22:41:50.225Z,100.00
2023-01-25T22:44:17.491Z,100.00
2023-01-25T22:46:44.461Z,100.00
2023-01-25T22:49:11.430Z,100.00
2023-01-25T22:51:38.395Z,100.00
2023-01-25T22:54:05.598Z,100.00
2023-01-25T22:56:33.928Z,100.00
2023-01-25T22:59:02.212Z,100.00
2023-01-25T23:01:32.317Z,100.00
2023-01-25T23:04:00.060Z,100.00
2023-01-25T23:06:35.550Z,100.00
2023-01-25T23:09:06.147Z,100.00
2023-01-25T23:11:37.483Z,100.00
2023-01-25T23:14:30.676Z,100.00
2023-01-25T23:17:17.740Z,100.00
2023-01-25T23:19:45.021Z,100.00
2023-01-25T23:22:12.002Z,100.00
2023-01-25T23:24:39.060Z,100.00
2023-01-25T23:27:06.086Z,100.00
2023-01-25T23:29:33.307Z,100.00
2023-01-25T23:32:00.295Z,100.00
2023-01-25T23:34:27.463Z,100.00
2023-01-25T23:36:54.436Z,100.00
2023-01-25T23:39:23.098Z,100.00
2023-01-25T23:41:51.526Z,100.00
2023-01-25T23:44:18.527Z,99.84
2023-01-25T23:46:45.474Z,99.63
2023-01-25T23:49:12.376Z,99.80
2023-01-25T23:51:39.217Z,99.86
2023-01-25T23:54:06.161Z,99.72
2023-01-25T23:56:33.414Z,99.86
2023-01-25T23:59:00.365Z,99.88
